Time;durP1;ratioP1;P1;durP2;ratioP2;P2;SDS_P1;SDS_P2;PMS_P1;PMS_P2;Temp;Humidity;BMP_temperature;BMP_pressure;BME280_temperature;BME280_humidity;BME280_pressure;Samples;Min_cycle;Max_cycle;Signal;HPM_P1;HPM_P2
2024/03/10 00:01:20;;;;;;;19.47;14.47;;;6.50;99.90;;;;;;4992631;28;20824;-62
2024/03/10 00:03:45;;;;;;;19.00;14.23;;;6.50;99.90;;;;;;5011097;28;20190;-58
2024/03/10 00:06:11;;;;;;;21.00;13.40;;;6.50;99.90;;;;;;5010428;28;20679;-61
2024/03/10 00:08:36;;;;;;;21.57;14.70;;;6.50;99.90;;;;;;5011089;28;20273;-59
2024/03/10 00:11:02;;;;;;;22.27;14.93;;;6.50;99.90;;;;;;5010898;28;20185;-60
2024/03/10 00:13:27;;;;;;;21.77;16.03;;;6.50;99.90;;;;;;5011025;28;20204;-61
2024/03/10 00:15:53;;;;;;;22.27;14.70;;;6.40;99.90;;;;;;5010618;28;20192;-64
2024/03/10 00:18:19;;;;;;;19.40;12.87;;;6.40;99.90;;;;;;5010795;28;20192;-57
2024/03/10 00:20:44;;;;;;;21.43;14.87;;;6.40;99.90;;;;;;5010776;28;20221;-60
2024/03/10 00:23:11;;;;;;;23.57;15.40;;;6.40;99.90;;;;;;5010394;28;20208;-64
2024/03/10 00:25:36;;;;;;;22.67;15.57;;;6.40;99.90;;;;;;5010503;28;20283;-60
2024/03/10 00:28:03;;;;;;;25.87;16.30;;;6.30;99.90;;;;;;5010575;28;20551;-61
2024/03/10 00:30:29;;;;;;;28.33;16.30;;;6.30;99.90;;;;;;5010184;28;20573;-61
2024/03/10 00:32:55;;;;;;;18.90;13.13;;;6.20;99.90;;;;;;5010875;28;20539;-60
2024/03/10 00:35:22;;;;;;;22.77;14.00;;;6.30;99.90;;;;;;5010032;28;20512;-62
2024/03/10 00:37:47;;;;;;;23.10;15.70;;;6.30;99.90;;;;;;5010547;28;20435;-61
2024/03/10 00:40:15;;;;;;;23.37;15.67;;;6.20;99.90;;;;;;5010454;28;20428;-60
2024/03/10 00:42:41;;;;;;;22.70;14.70;;;6.20;99.90;;;;;;5011892;28;20919;-60
2024/03/10 00:45:09;;;;;;;21.37;15.10;;;6.20;99.90;;;;;;5014050;28;20475;-60
2024/03/10 00:47:37;;;;;;;21.40;15.37;;;6.20;99.90;;;;;;5006252;28;20513;-62
2024/03/10 00:50:04;;;;;;;22.83;17.23;;;6.20;99.90;;;;;;5012993;28;20439;-62
2024/03/10 00:52:30;;;;;;;19.43;14.27;;;6.20;99.90;;;;;;5014175;28;20539;-61
2024/03/10 00:54:56;;;;;;;23.10;17.00;;;6.10;99.90;;;;;;5013552;28;20908;-64
2024/03/10 00:57:22;;;;;;;21.50;16.53;;;6.10;99.90;;;;;;5013777;28;20462;-62
2024/03/10 00:59:47;;;;;;;22.13;15.30;;;6.10;99.90;;;;;;5014144;28;20182;-58
2024/03/10 01:02:13;;;;;;;23.23;15.10;;;6.10;99.90;;;;;;5013572;28;20299;-60
2024/03/10 01:04:38;;;;;;;20.37;14.30;;;6.10;99.90;;;;;;5013743;28;20195;-62
2024/03/10 01:07:04;;;;;;;24.10;15.27;;;6.10;99.90;;;;;;5013282;28;20212;-62
2024/03/10 01:09:30;;;;;;;26.27;15.13;;;6.00;99.90;;;;;;5013509;28;20243;-62
2024/03/10 01:11:55;;;;;;;24.07;15.40;;;6.00;99.90;;;;;;5013862;28;20219;-62
2024/03/10 01:14:21;;;;;;;21.13;14.67;;;6.00;99.90;;;;;;5013072;28;20180;-61
2024/03/10 01:16:47;;;;;;;21.63;15.67;;;6.00;99.90;;;;;;5013270;28;20183;-61
2024/03/10 01:19:13;;;;;;;19.43;15.30;;;5.90;99.90;;;;;;5013548;28;20604;-63
2024/03/10 01:21:39;;;;;;;22.77;14.03;;;6.00;99.90;;;;;;5013556;28;20209;-62
2024/03/10 01:24:05;;;;;;;20.97;14.60;;;6.00;99.90;;;;;;5013480;28;20490;-63
2024/03/10 01:26:30;;;;;;;22.60;14.03;;;6.00;99.90;;;;;;5012893;28;20216;-62
2024/03/10 01:28:56;;;;;;;19.77;15.53;;;6.00;99.90;;;;;;5013200;28;20423;-60
2024/03/10 01:31:22;;;;;;;22.70;15.57;;;6.00;99.90;;;;;;5012901;28;20181;-60
2024/03/10 01:33:48;;;;;;;24.10;16.20;;;5.90;99.90;;;;;;5013336;28;20427;-57
2024/03/10 01:36:14;;;;;;;23.70;16.40;;;6.00;99.90;;;;;;5012467;28;20247;-59
2024/03/10 01:38:40;;;;;;;23.60;16.00;;;6.00;99.90;;;;;;5013163;28;20427;-60
2024/03/10 01:41:07;;;;;;;25.60;16.30;;;5.90;99.90;;;;;;5013067;28;20770;-60
2024/03/10 01:43:33;;;;;;;24.70;15.60;;;5.90;99.90;;;;;;5012998;28;20196;-62
2024/03/10 01:46:08;;;;;;;21.23;15.80;;;5.90;99.90;;;;;;5013010;28;20459;-63
2024/03/10 01:48:37;;;;;;;25.53;15.93;;;5.90;99.90;;;;;;5013806;28;20565;-59
2024/03/10 01:51:03;;;;;;;27.73;17.60;;;5.80;99.90;;;;;;5013494;28;20420;-60
2024/03/10 01:53:31;;;;;;;27.43;15.07;;;5.80;99.90;;;;;;5012615;28;20783;-61
2024/03/10 01:55:58;;;;;;;25.63;15.97;;;5.80;99.90;;;;;;4994654;28;20428;-61
2024/03/10 01:58:24;;;;;;;19.83;14.20;;;5.70;99.90;;;;;;5013005;28;20420;-62
2024/03/10 02:00:51;;;;;;;21.57;15.20;;;5.70;99.90;;;;;;5012906;28;20439;-61
2024/03/10 02:03:18;;;;;;;25.50;15.70;;;5.70;99.90;;;;;;5012185;28;20471;-63
2024/03/10 02:05:46;;;;;;;22.67;16.10;;;5.70;99.90;;;;;;5012033;28;20859;-60
2024/03/10 02:08:14;;;;;;;27.60;15.60;;;5.70;99.90;;;;;;5012741;28;20783;-62
2024/03/10 02:10:40;;;;;;;24.63;16.90;;;5.60;99.90;;;;;;5012448;28;20421;-63
2024/03/10 02:13:06;;;;;;;23.80;15.77;;;5.60;99.90;;;;;;5012397;28;20458;-60
2024/03/10 02:15:31;;;;;;;22.40;15.30;;;5.60;99.90;;;;;;5009739;28;20439;-62
2024/03/10 02:17:57;;;;;;;27.10;17.90;;;5.50;99.90;;;;;;5012549;28;20267;-62
2024/03/10 02:20:26;;;;;;;23.03;16.70;;;5.50;99.90;;;;;;5011954;28;20215;-63
2024/03/10 02:22:51;;;;;;;21.57;15.80;;;5.50;99.90;;;;;;5012368;28;20953;-62
2024/03/10 02:25:22;;;;;;;24.70;17.10;;;5.50;99.90;;;;;;5012017;28;20419;-59
2024/03/10 02:27:50;;;;;;;29.43;17.70;;;5.40;99.90;;;;;;5012607;28;20212;-61
2024/03/10 02:30:19;;;;;;;23.17;16.77;;;5.40;99.90;;;;;;5012007;28;20420;-63
2024/03/10 02:49:21;;;;;;;28.40;18.53;;;5.20;99.90;;;;;;5011461;28;20477;-60
2024/03/10 02:51:46;;;;;;;31.47;19.00;;;5.10;99.90;;;;;;5011558;28;20443;-63
2024/03/10 02:54:12;;;;;;;26.17;17.60;;;5.10;99.90;;;;;;5011912;28;20208;-63
2024/03/10 02:56:38;;;;;;;26.50;17.40;;;5.10;99.90;;;;;;5011153;28;21574;-62
2024/03/10 02:59:03;;;;;;;29.77;19.63;;;5.10;99.90;;;;;;5010891;28;20216;-62
2024/03/10 03:01:30;;;;;;;29.73;19.97;;;5.10;99.90;;;;;;5010609;28;20275;-62
2024/03/10 03:03:55;;;;;;;28.57;17.53;;;5.00;99.90;;;;;;5011662;28;20302;-60
2024/03/10 03:06:22;;;;;;;26.87;18.80;;;5.00;99.90;;;;;;5010848;28;20894;-61
2024/03/10 03:08:48;;;;;;;29.47;19.03;;;5.00;99.90;;;;;;5011779;28;20259;-64
2024/03/10 03:11:13;;;;;;;35.33;20.63;;;4.90;99.90;;;;;;5010979;28;20521;-63
2024/03/10 03:13:39;;;;;;;34.30;20.57;;;4.90;99.90;;;;;;5011352;28;20795;-61
2024/03/10 03:16:05;;;;;;;33.87;20.57;;;4.90;99.90;;;;;;5011189;28;20172;-63
2024/03/10 03:18:31;;;;;;;31.23;20.30;;;4.90;99.90;;;;;;5011582;28;20187;-62
2024/03/10 03:20:57;;;;;;;31.17;19.63;;;4.90;99.90;;;;;;5010789;28;20917;-63
2024/03/10 03:23:23;;;;;;;31.70;19.00;;;4.90;99.90;;;;;;5010916;28;20211;-63
2024/03/10 03:25:53;;;;;;;32.17;20.33;;;4.90;99.90;;;;;;5010961;28;20777;-61
2024/03/10 03:28:20;;;;;;;30.10;21.13;;;4.80;99.90;;;;;;5010987;28;20339;-66
2024/03/10 03:30:47;;;;;;;29.50;18.63;;;4.80;99.90;;;;;;5010769;28;20412;-60
2024/03/10 03:33:13;;;;;;;30.80;21.43;;;4.80;99.90;;;;;;5011260;28;20436;-62
2024/03/10 03:35:39;;;;;;;31.17;20.57;;;4.80;99.90;;;;;;5011001;28;20434;-63
2024/03/10 03:38:05;;;;;;;30.13;18.83;;;4.80;99.90;;;;;;5011496;28;20200;-61
2024/03/10 03:40:31;;;;;;;34.53;19.43;;;4.80;99.90;;;;;;5010507;28;20188;-63
2024/03/10 03:42:58;;;;;;;29.63;19.57;;;4.70;99.90;;;;;;5010858;28;20451;-62
2024/03/10 03:45:24;;;;;;;32.87;22.33;;;4.70;99.90;;;;;;4992955;28;20443;-61
2024/03/10 03:47:49;;;;;;;34.63;20.97;;;4.70;99.90;;;;;;5011326;28;20462;-62
2024/03/10 03:50:15;;;;;;;33.50;21.70;;;4.70;99.90;;;;;;5011012;28;20177;-60
2024/03/10 03:52:41;;;;;;;28.33;18.70;;;4.70;99.90;;;;;;5010317;28;20204;-59
2024/03/10 03:55:07;;;;;;;30.57;19.53;;;4.70;99.90;;;;;;5011027;28;20184;-62
2024/03/10 03:57:33;;;;;;;31.03;21.30;;;4.70;99.90;;;;;;5010955;28;20430;-60
2024/03/10 04:00:00;;;;;;;34.23;21.90;;;4.70;99.90;;;;;;5010715;28;20917;-60
2024/03/10 04:02:25;;;;;;;36.30;22.73;;;4.70;99.90;;;;;;5009718;28;20454;-65
2024/03/10 04:04:52;;;;;;;28.90;19.17;;;4.70;99.90;;;;;;5011104;28;20455;-58
2024/03/10 04:07:18;;;;;;;33.93;21.37;;;4.60;99.90;;;;;;5011185;28;20589;-61
2024/03/10 04:09:44;;;;;;;35.03;22.23;;;4.60;99.90;;;;;;5009904;28;20514;-61
2024/03/10 04:12:09;;;;;;;33.43;22.50;;;4.60;99.90;;;;;;5010565;28;20208;-59
2024/03/10 04:14:37;;;;;;;38.23;24.43;;;4.60;99.90;;;;;;5010751;28;20188;-61
2024/03/10 04:17:03;;;;;;;30.43;20.27;;;4.50;99.90;;;;;;5011670;28;20255;-61
2024/03/10 04:19:28;;;;;;;43.73;23.57;;;4.50;99.90;;;;;;5015047;28;20530;-60
2024/03/10 04:21:54;;;;;;;35.50;21.97;;;4.50;99.90;;;;;;5015223;28;20204;-60
2024/03/10 04:24:21;;;;;;;36.20;20.70;;;4.50;99.90;;;;;;5014861;28;20184;-62
2024/03/10 04:26:47;;;;;;;37.13;24.47;;;4.50;99.90;;;;;;5014789;28;20620;-58
2024/03/10 04:29:13;;;;;;;40.90;23.93;;;4.50;99.90;;;;;;5014075;28;20423;-60
2024/03/10 04:31:39;;;;;;;35.03;22.37;;;4.40;99.90;;;;;;5014658;28;20602;-60
2024/03/10 04:34:05;;;;;;;41.90;23.07;;;4.50;99.90;;;;;;5014679;28;20522;-57
2024/03/10 04:36:31;;;;;;;35.97;23.10;;;4.40;99.90;;;;;;5014341;28;20185;-59
2024/03/10 04:38:57;;;;;;;37.50;24.57;;;4.40;99.90;;;;;;5014251;28;20517;-61
2024/03/10 04:41:23;;;;;;;38.37;23.63;;;4.40;99.90;;;;;;5014469;28;20573;-66
2024/03/10 04:43:48;;;;;;;35.97;23.13;;;4.40;99.90;;;;;;5014595;28;20191;-62
2024/03/10 04:46:14;;;;;;;36.90;24.70;;;4.40;99.90;;;;;;5014131;28;20813;-62
2024/03/10 04:48:40;;;;;;;33.73;21.70;;;4.40;99.90;;;;;;5014195;28;20557;-59
2024/03/10 04:51:05;;;;;;;36.53;21.23;;;4.40;99.90;;;;;;5014722;28;20176;-62
2024/03/10 04:53:32;;;;;;;33.57;21.70;;;4.40;99.90;;;;;;5027695;22;20272;-55
2024/03/10 04:55:58;;;;;;;32.43;22.50;;;4.40;99.90;;;;;;5013142;28;20521;-53
2024/03/10 04:58:23;;;;;;;38.00;23.10;;;4.30;99.90;;;;;;5012690;28;20423;-60
2024/03/10 05:00:49;;;;;;;39.00;22.80;;;4.40;99.90;;;;;;5012919;28;20291;-55
2024/03/10 05:03:15;;;;;;;35.17;25.40;;;4.40;99.90;;;;;;5012942;28;20712;-57
2024/03/10 05:05:41;;;;;;;41.53;24.20;;;4.40;99.90;;;;;;5012612;28;20191;-56
2024/03/10 05:08:08;;;;;;;36.50;23.13;;;4.40;99.90;;;;;;5012439;28;20220;-56
2024/03/10 05:10:34;;;;;;;35.93;22.93;;;4.30;99.90;;;;;;5012664;28;20181;-55
2024/03/10 05:13:00;;;;;;;39.77;25.53;;;4.30;99.90;;;;;;5012175;28;20470;-58
2024/03/10 05:15:26;;;;;;;35.70;21.83;;;4.30;99.90;;;;;;5012128;28;20435;-56
2024/03/10 05:17:52;;;;;;;38.70;22.90;;;4.30;99.90;;;;;;5013097;28;20431;-54
2024/03/10 05:20:18;;;;;;;39.83;24.40;;;4.30;99.90;;;;;;5014583;28;20949;-59
2024/03/10 05:22:45;;;;;;;41.30;24.27;;;4.30;99.90;;;;;;5015486;28;20776;-58
2024/03/10 05:25:11;;;;;;;37.10;22.70;;;4.30;99.90;;;;;;5014863;28;20437;-56
2024/03/10 05:27:41;;;;;;;37.80;24.50;;;4.30;99.90;;;;;;5012414;28;20462;-56
2024/03/10 05:30:07;;;;;;;33.97;21.50;;;4.30;99.90;;;;;;5005796;28;20459;-57
2024/03/10 05:32:32;;;;;;;33.50;20.97;;;4.30;99.90;;;;;;5011914;28;20451;-56
2024/03/10 05:34:58;;;;;;;32.83;21.33;;;4.30;99.90;;;;;;5012606;28;20450;-56
2024/03/10 05:37:24;;;;;;;41.37;22.43;;;4.30;99.90;;;;;;5013088;28;20207;-56
2024/03/10 05:39:49;;;;;;;33.13;21.93;;;4.30;99.90;;;;;;5012329;28;20224;-58
2024/03/10 05:42:15;;;;;;;40.20;22.70;;;4.30;99.90;;;;;;5012067;28;20206;-50
2024/03/10 05:44:41;;;;;;;31.87;22.17;;;4.30;99.90;;;;;;5011872;28;20196;-51
2024/03/10 05:47:07;;;;;;;36.27;21.40;;;4.30;99.90;;;;;;5011973;28;20204;-53
2024/03/10 05:49:32;;;;;;;34.07;21.30;;;4.40;99.90;;;;;;5011832;28;20545;-54
2024/03/10 05:51:58;;;;;;;34.83;21.80;;;4.40;99.90;;;;;;5011664;28;20454;-51
2024/03/10 05:54:25;;;;;;;32.10;21.30;;;4.40;99.90;;;;;;5011781;28;20799;-51
2024/03/10 05:56:50;;;;;;;35.90;23.13;;;4.50;99.90;;;;;;5011694;28;20188;-51
2024/03/10 05:59:16;;;;;;;36.43;24.80;;;4.50;99.90;;;;;;5011763;28;20434;-54
2024/03/10 06:01:45;;;;;;;39.63;23.23;;;4.50;99.90;;;;;;5011923;28;20202;-59
2024/03/10 06:04:11;;;;;;;39.90;22.57;;;4.60;99.90;;;;;;5011706;28;20269;-55
2024/03/10 06:06:38;;;;;;;38.30;23.53;;;4.60;99.90;;;;;;5011450;28;20467;-55
2024/03/10 06:09:05;;;;;;;36.20;21.50;;;4.60;99.90;;;;;;5011680;28;20435;-56
2024/03/10 06:11:32;;;;;;;37.57;21.00;;;4.70;99.90;;;;;;5011149;28;20868;-56
2024/03/10 06:13:58;;;;;;;34.67;22.50;;;4.70;99.90;;;;;;5011430;28;20474;-58
2024/03/10 06:16:23;;;;;;;30.97;18.50;;;4.70;99.90;;;;;;5011412;28;21169;-58
2024/03/10 06:26:50;;;;;;;32.33;20.47;;;5.00;99.90;;;;;;5010874;28;20462;-57
2024/03/10 06:29:16;;;;;;;33.43;22.43;;;5.10;99.90;;;;;;5011450;28;20435;-56
2024/03/10 06:31:41;;;;;;;33.57;21.57;;;5.20;99.90;;;;;;5010954;28;20185;-57
2024/03/10 06:34:07;;;;;;;36.97;22.87;;;5.30;99.90;;;;;;5011811;28;20204;-52
2024/03/10 06:36:34;;;;;;;38.30;22.53;;;5.50;99.90;;;;;;5010338;28;20662;-52
2024/03/10 06:38:59;;;;;;;35.77;20.20;;;5.70;99.90;;;;;;5010633;28;20869;-51
2024/03/10 06:41:25;;;;;;;32.30;19.63;;;5.90;99.90;;;;;;5010342;28;20440;-50
2024/03/10 06:43:52;;;;;;;33.83;22.20;;;6.20;99.90;;;;;;5010117;28;20748;-54
2024/03/10 06:46:18;;;;;;;30.50;21.03;;;6.40;99.90;;;;;;5010592;28;20190;-56
2024/03/10 06:48:43;;;;;;;25.40;18.07;;;6.60;99.90;;;;;;5010628;28;20421;-56
2024/03/10 06:51:10;;;;;;;28.50;21.10;;;6.80;99.90;;;;;;5010880;28;20193;-63
2024/03/10 06:53:36;;;;;;;28.90;19.10;;;6.70;99.90;;;;;;5010649;28;20228;-62
2024/03/10 06:56:03;;;;;;;53.57;33.77;;;6.90;99.90;;;;;;5010845;28;20474;-57
2024/03/10 06:58:30;;;;;;;29.10;19.87;;;7.40;99.90;;;;;;5010742;28;20180;-59
2024/03/10 07:00:56;;;;;;;26.90;17.57;;;7.40;99.90;;;;;;5010261;28;20472;-58
2024/03/10 07:03:21;;;;;;;32.93;21.77;;;7.50;99.90;;;;;;5008433;28;20865;-55
2024/03/10 07:05:47;;;;;;;29.93;19.60;;;7.60;99.90;;;;;;5010874;28;20426;-57
2024/03/10 07:08:15;;;;;;;28.70;19.20;;;7.60;99.90;;;;;;5010897;28;20566;-57
2024/03/10 07:10:41;;;;;;;26.30;17.97;;;7.70;99.90;;;;;;5010555;28;20657;-58
2024/03/10 07:13:10;;;;;;;26.77;18.80;;;8.00;99.90;;;;;;5011120;28;20474;-60
2024/03/10 07:15:36;;;;;;;26.20;18.27;;;8.30;99.90;;;;;;5005287;28;20476;-56
2024/03/10 07:18:02;;;;;;;29.43;19.77;;;8.30;99.90;;;;;;5010836;28;20509;-57
2024/03/10 07:20:27;;;;;;;26.97;18.40;;;8.30;99.90;;;;;;5010521;28;20195;-60
2024/03/10 07:22:53;;;;;;;27.50;18.60;;;8.50;99.90;;;;;;5010284;28;20208;-59
2024/03/10 07:25:19;;;;;;;32.50;19.37;;;8.60;99.90;;;;;;5010365;28;20196;-57
2024/03/10 07:27:45;;;;;;;29.07;20.17;;;8.80;99.90;;;;;;5010876;28;20467;-57
2024/03/10 07:30:12;;;;;;;24.77;18.50;;;8.80;99.90;;;;;;5009349;28;20427;-60
2024/03/10 07:32:38;;;;;;;27.57;18.63;;;9.10;99.90;;;;;;5009859;28;20284;-59
2024/03/10 07:35:04;;;;;;;26.80;19.20;;;9.40;99.90;;;;;;5008716;28;20871;-60
2024/03/10 07:37:30;;;;;;;23.60;19.07;;;9.60;99.90;;;;;;5010620;28;20197;-61
2024/03/10 07:39:56;;;;;;;29.27;18.07;;;9.50;99.90;;;;;;5009508;28;20458;-60
2024/03/10 07:42:21;;;;;;;29.23;18.23;;;10.00;99.90;;;;;;5009581;28;20468;-58
2024/03/10 07:44:47;;;;;;;22.70;16.57;;;10.10;99.90;;;;;;5010217;28;20254;-57
2024/03/10 07:47:13;;;;;;;25.83;16.97;;;10.00;99.90;;;;;;5009794;28;20455;-59
2024/03/10 07:49:39;;;;;;;23.97;16.93;;;10.40;99.90;;;;;;5010217;28;20195;-56
2024/03/10 07:52:05;;;;;;;27.10;19.03;;;10.00;99.90;;;;;;5009975;28;20682;-57
2024/03/10 07:54:34;;;;;;;22.03;17.00;;;10.40;99.90;;;;;;5009954;28;20515;-56
2024/03/10 07:56:59;;;;;;;22.37;16.73;;;10.50;99.90;;;;;;5005125;28;20460;-57
2024/03/10 07:59:25;;;;;;;25.40;17.23;;;10.60;99.90;;;;;;5009701;28;20420;-58
2024/03/10 08:01:51;;;;;;;24.83;17.90;;;10.60;99.90;;;;;;5007964;28;20190;-61
2024/03/10 08:04:20;;;;;;;27.37;17.17;;;10.70;99.90;;;;;;5009239;28;20206;-60
2024/03/10 08:06:46;;;;;;;24.13;18.33;;;11.00;99.90;;;;;;5009579;28;20537;-59
2024/03/10 08:09:15;;;;;;;27.40;19.77;;;11.00;99.90;;;;;;5009459;28;20812;-56
2024/03/10 08:11:46;;;;;;;25.00;16.83;;;11.10;99.90;;;;;;5008539;28;20574;-60
2024/03/10 08:14:12;;;;;;;24.03;16.90;;;11.10;99.90;;;;;;5010436;28;20443;-57
2024/03/10 08:16:38;;;;;;;24.30;16.90;;;11.40;99.90;;;;;;5009158;28;20455;-60
2024/03/10 08:19:03;;;;;;;23.23;18.30;;;11.10;99.90;;;;;;5009930;28;20182;-60
2024/03/10 08:21:30;;;;;;;23.10;16.40;;;11.30;99.90;;;;;;4991956;28;20931;-59
2024/03/10 08:23:56;;;;;;;29.00;19.50;;;11.50;99.90;;;;;;5009656;28;20290;-54
2024/03/10 08:26:22;;;;;;;76.37;46.17;;;11.30;99.90;;;;;;5009693;28;20431;-60
2024/03/10 08:28:48;;;;;;;27.67;17.73;;;12.00;99.90;;;;;;5009511;28;20928;-65
2024/03/10 08:31:14;;;;;;;26.87;18.20;;;11.40;99.90;;;;;;5009341;28;20784;-55
2024/03/10 08:33:40;;;;;;;22.70;16.70;;;11.40;99.90;;;;;;5008481;28;20450;-57
2024/03/10 08:36:08;;;;;;;23.47;17.10;;;11.60;99.90;;;;;;5009738;28;20707;-56
2024/03/10 08:38:34;;;;;;;24.27;18.43;;;11.70;99.90;;;;;;5009420;28;20186;-58
2024/03/10 08:41:00;;;;;;;22.63;16.83;;;12.00;99.90;;;;;;5008852;28;20523;-57
2024/03/10 08:43:28;;;;;;;24.20;18.00;;;12.50;99.90;;;;;;5009301;28;20879;-58
2024/03/10 08:45:54;;;;;;;34.90;18.53;;;12.70;99.90;;;;;;5008904;28;20976;-60
2024/03/10 08:48:20;;;;;;;19.30;15.00;;;12.90;99.90;;;;;;5009476;28;20564;-57
2024/03/10 08:50:45;;;;;;;21.20;16.03;;;13.20;99.90;;;;;;5009128;28;20471;-57
2024/03/10 08:53:13;;;;;;;23.40;17.20;;;13.80;99.90;;;;;;5008909;28;20217;-60
2024/03/10 08:55:38;;;;;;;22.30;17.30;;;13.70;99.90;;;;;;5002768;28;20190;-57
2024/03/10 08:58:04;;;;;;;24.13;16.73;;;13.80;99.90;;;;;;5009124;28;20782;-55
2024/03/10 09:00:30;;;;;;;22.97;16.47;;;14.00;99.90;;;;;;5008207;28;20187;-57
2024/03/10 09:02:56;;;;;;;25.37;17.40;;;13.40;99.90;;;;;;5008897;28;20600;-58
2024/03/10 09:05:23;;;;;;;21.60;16.40;;;13.00;99.90;;;;;;5012631;28;20435;-61
2024/03/10 09:07:50;;;;;;;23.93;17.60;;;12.30;99.90;;;;;;5006866;28;20224;-57
2024/03/10 09:10:15;;;;;;;26.60;18.67;;;12.10;99.90;;;;;;5012463;28;20437;-55
2024/03/10 09:12:42;;;;;;;23.77;18.10;;;12.30;99.90;;;;;;5012039;28;20500;-54
2024/03/10 09:15:09;;;;;;;26.87;17.00;;;12.40;99.90;;;;;;5011497;28;20271;-59
2024/03/10 09:17:36;;;;;;;24.43;16.63;;;12.60;99.90;;;;;;5012871;28;20436;-59
2024/03/10 09:20:03;;;;;;;24.07;16.63;;;12.30;99.90;;;;;;5011690;28;20973;-59
2024/03/10 09:22:29;;;;;;;22.10;18.60;;;12.20;99.90;;;;;;5012129;28;20451;-56
2024/03/10 09:24:55;;;;;;;27.60;17.77;;;11.80;99.90;;;;;;5012410;28;20459;-57
2024/03/10 09:27:20;;;;;;;24.90;18.63;;;11.80;99.90;;;;;;5012107;28;20498;-52
2024/03/10 09:29:47;;;;;;;22.70;17.17;;;11.80;99.90;;;;;;5012371;28;20184;-56
2024/03/10 09:32:15;;;;;;;25.03;17.70;;;11.60;99.90;;;;;;5011820;28;20599;-56
2024/03/10 09:34:42;;;;;;;23.17;17.73;;;11.50;99.90;;;;;;5012024;28;20514;-56
2024/03/10 09:37:08;;;;;;;24.87;17.47;;;11.50;99.90;;;;;;4994720;28;20517;-60
2024/03/10 09:39:34;;;;;;;26.87;19.13;;;11.70;99.90;;;;;;5012330;28;20454;-55
2024/03/10 09:42:00;;;;;;;25.80;19.30;;;11.60;99.90;;;;;;5011573;28;20459;-57
2024/03/10 09:44:26;;;;;;;24.27;17.00;;;11.50;99.90;;;;;;5011605;28;20451;-58
2024/03/10 09:46:53;;;;;;;23.63;16.97;;;11.60;99.90;;;;;;5011452;28;20236;-56
2024/03/10 09:49:22;;;;;;;23.20;17.23;;;11.90;99.90;;;;;;5012062;28;20567;-60
2024/03/10 09:51:49;;;;;;;20.87;16.80;;;12.00;99.90;;;;;;5012071;28;20832;-58
2024/03/10 09:54:18;;;;;;;23.00;16.70;;;12.10;99.90;;;;;;5011896;28;20455;-60
2024/03/10 09:56:47;;;;;;;23.63;18.20;;;12.10;99.90;;;;;;5011111;28;20462;-60
2024/03/10 09:59:30;;;;;;;22.40;17.63;;;12.00;99.90;;;;;;5011120;28;20425;-61
2024/03/10 10:01:58;;;;;;;23.20;18.47;;;12.00;99.90;;;;;;5010623;28;20435;-62
2024/03/10 10:04:32;;;;;;;22.43;17.80;;;12.00;99.90;;;;;;5011238;28;20839;-59
2024/03/10 10:07:03;;;;;;;19.10;16.27;;;12.20;99.90;;;;;;5011321;28;20471;-58
2024/03/10 10:09:30;;;;;;;26.83;18.30;;;12.00;99.90;;;;;;5011656;28;20424;-57
2024/03/10 10:11:59;;;;;;;23.43;16.33;;;11.80;99.90;;;;;;5010776;28;20423;-58
2024/03/10 10:14:29;;;;;;;20.53;15.90;;;11.80;99.90;;;;;;5010797;28;20430;-57
2024/03/10 10:16:56;;;;;;;23.80;17.10;;;11.90;99.90;;;;;;5010342;28;20417;-60
2024/03/10 10:19:26;;;;;;;22.33;16.50;;;11.90;99.90;;;;;;5010292;28;20431;-56
2024/03/10 10:21:53;;;;;;;25.47;18.67;;;12.00;99.90;;;;;;5008376;28;20426;-55
2024/03/10 10:24:19;;;;;;;22.73;16.60;;;12.00;99.90;;;;;;5010594;28;20453;-56
2024/03/10 10:27:05;;;;;;;23.60;16.83;;;12.10;99.90;;;;;;5010603;28;20467;-57
2024/03/10 10:29:50;;;;;;;22.97;16.77;;;12.20;99.90;;;;;;5010708;28;20431;-55
2024/03/10 10:32:20;;;;;;;28.60;17.50;;;12.30;99.90;;;;;;5004241;28;20477;-57
2024/03/10 10:34:46;;;;;;;25.83;18.03;;;12.60;99.90;;;;;;5010332;28;20430;-62
2024/03/10 10:37:12;;;;;;;24.57;17.47;;;12.70;99.90;;;;;;5010011;28;20432;-57
2024/03/10 10:39:39;;;;;;;24.43;16.57;;;12.70;99.90;;;;;;5010252;28;20626;-60
2024/03/10 10:42:07;;;;;;;18.97;14.63;;;12.60;99.90;;;;;;5010698;28;20773;-61
2024/03/10 10:44:40;;;;;;;23.97;18.00;;;12.60;99.90;;;;;;5010571;28;20423;-63
2024/03/10 10:47:08;;;;;;;22.40;18.40;;;12.20;99.90;;;;;;5010518;28;20996;-59
2024/03/10 10:49:34;;;;;;;22.23;16.00;;;12.30;99.90;;;;;;5011060;28;20922;-63
2024/03/10 10:52:01;;;;;;;27.57;17.77;;;12.30;99.90;;;;;;5010476;28;20481;-62
2024/03/10 10:54:28;;;;;;;26.63;18.47;;;12.20;99.90;;;;;;5006468;28;21179;-58
2024/03/10 10:57:00;;;;;;;25.57;18.07;;;12.30;99.90;;;;;;5010378;28;20429;-66
2024/03/10 10:59:26;;;;;;;22.00;17.03;;;12.20;99.90;;;;;;5010642;28;20430;-58
2024/03/10 11:01:58;;;;;;;29.00;19.03;;;12.10;99.90;;;;;;5009949;28;20439;-63
2024/03/10 11:04:25;;;;;;;22.53;18.23;;;12.10;99.90;;;;;;5010798;28;20475;-59
2024/03/10 11:06:54;;;;;;;26.87;18.80;;;12.00;99.90;;;;;;5010558;28;20458;-65
2024/03/10 11:09:30;;;;;;;23.60;17.60;;;12.10;99.90;;;;;;5010123;28;20788;-65
2024/03/10 11:11:56;;;;;;;23.60;17.53;;;12.00;99.90;;;;;;5009972;28;20427;-64
2024/03/10 11:14:27;;;;;;;23.70;18.23;;;12.00;99.90;;;;;;5009850;28;20458;-56
2024/03/10 11:17:18;;;;;;;24.03;17.43;;;12.10;99.90;;;;;;5007972;28;20509;-64
2024/03/10 11:19:52;;;;;;;26.17;17.50;;;12.20;99.90;;;;;;5010698;28;20419;-57
2024/03/10 11:22:20;;;;;;;24.47;17.60;;;12.30;99.90;;;;;;5006431;28;20755;-56
2024/03/10 11:25:13;;;;;;;24.27;18.47;;;12.10;99.90;;;;;;5010407;28;20753;-62
2024/03/10 11:27:44;;;;;;;25.13;18.70;;;12.10;99.90;;;;;;5010076;28;20544;-58
2024/03/10 11:30:41;;;;;;;117.33;74.93;;;12.20;99.90;;;;;;5009802;28;20491;-56
2024/03/10 11:33:07;;;;;;;26.93;18.93;;;12.30;99.90;;;;;;5009894;28;20470;-59
2024/03/10 11:35:35;;;;;;;31.13;19.47;;;12.50;99.90;;;;;;5010426;28;20429;-56
2024/03/10 11:38:01;;;;;;;25.30;17.37;;;12.60;99.90;;;;;;5010079;28;20431;-58
2024/03/10 11:40:30;;;;;;;25.63;19.13;;;12.50;99.90;;;;;;5009524;28;20423;-56
2024/03/10 11:42:58;;;;;;;29.03;18.10;;;12.40;99.90;;;;;;5010331;28;20266;-57
2024/03/10 11:45:25;;;;;;;23.47;17.43;;;12.50;99.90;;;;;;5007263;28;20491;-56
2024/03/10 11:47:51;;;;;;;23.07;16.77;;;12.50;99.90;;;;;;5008873;28;20473;-56
2024/03/10 11:50:17;;;;;;;24.63;17.97;;;12.60;99.90;;;;;;5009023;28;20469;-60
2024/03/10 11:52:43;;;;;;;26.00;17.80;;;12.50;99.90;;;;;;5008803;28;20486;-58
2024/03/10 11:55:13;;;;;;;26.27;18.77;;;12.40;99.90;;;;;;5009727;28;20799;-56
2024/03/10 11:57:42;;;;;;;24.67;18.53;;;12.50;99.90;;;;;;5009200;28;20247;-56
2024/03/10 12:00:09;;;;;;;27.37;15.67;;;12.50;99.90;;;;;;5008346;28;20431;-55
2024/03/10 12:02:37;;;;;;;22.73;16.60;;;12.50;99.90;;;;;;5004042;28;20516;-55
2024/03/10 12:05:05;;;;;;;20.83;16.30;;;12.60;99.90;;;;;;5009633;28;20773;-55
2024/03/10 12:07:33;;;;;;;23.53;16.97;;;12.60;99.90;;;;;;5009084;28;20467;-54
2024/03/10 12:09:59;;;;;;;19.20;15.17;;;12.60;99.90;;;;;;5006494;28;20446;-56
2024/03/10 12:12:31;;;;;;;24.43;16.33;;;12.60;99.90;;;;;;5009873;28;20759;-56
2024/03/10 12:14:57;;;;;;;20.07;15.20;;;12.70;99.90;;;;;;5009917;28;20472;-55
2024/03/10 12:17:22;;;;;;;22.50;15.13;;;12.80;99.90;;;;;;5010203;28;20431;-56
2024/03/10 12:19:48;;;;;;;21.13;14.77;;;13.00;99.90;;;;;;5009802;28;20450;-56
2024/03/10 12:22:14;;;;;;;19.20;14.80;;;13.00;99.90;;;;;;5008714;28;20818;-58
2024/03/10 12:24:43;;;;;;;18.37;14.60;;;13.00;99.90;;;;;;5009519;28;20443;-64
2024/03/10 12:27:09;;;;;;;19.60;14.00;;;13.00;99.90;;;;;;5008806;28;20823;-65
2024/03/10 12:29:45;;;;;;;16.93;14.07;;;13.10;99.90;;;;;;5009766;28;20985;-58
2024/03/10 12:32:12;;;;;;;22.03;15.27;;;13.00;99.90;;;;;;5009345;28;20481;-59
2024/03/10 12:34:37;;;;;;;14.93;13.33;;;13.00;99.90;;;;;;5009568;28;20433;-58
2024/03/10 12:37:04;;;;;;;19.93;15.10;;;13.00;99.90;;;;;;5009376;28;20469;-57
2024/03/10 12:39:30;;;;;;;19.30;15.07;;;13.00;99.90;;;;;;5011605;28;20200;-58
2024/03/10 12:41:55;;;;;;;22.77;15.33;;;12.90;99.90;;;;;;5013293;28;20428;-60
2024/03/10 12:44:21;;;;;;;18.80;14.80;;;12.90;99.90;;;;;;5012691;28;20426;-56
2024/03/10 12:46:47;;;;;;;21.53;14.53;;;12.90;99.90;;;;;;5013364;28;20213;-58
2024/03/10 12:49:12;;;;;;;17.57;13.90;;;13.00;99.90;;;;;;5012976;28;20180;-59
2024/03/10 12:51:39;;;;;;;22.90;14.30;;;13.00;99.90;;;;;;5012943;28;20219;-58
2024/03/10 12:54:06;;;;;;;19.80;14.17;;;12.90;99.90;;;;;;5012828;28;20216;-59
2024/03/10 12:56:32;;;;;;;18.53;13.93;;;13.00;99.90;;;;;;5011201;28;20849;-57